sensor_id;sensor_type;location;lat;lon;timestamp;temperature;humidity
55771;DHT22;41687;-33.234;-60.334;2022-11-27T00:01:30;29.60;50.70
55771;DHT22;41687;-33.234;-60.334;2022-11-27T00:03:59;29.50;50.10
55771;DHT22;41687;-33.234;-60.334;2022-11-27T00:06:28;29.50;50.40
55771;DHT22;41687;-33.234;-60.334;2022-11-27T00:09:00;29.50;50.70
55771;DHT22;41687;-33.234;-60.334;2022-11-27T00:11:31;29.50;51.00
55771;DHT22;41687;-33.234;-60.334;2022-11-27T00:14:00;29.40;51.50
55771;DHT22;41687;-33.234;-60.334;2022-11-27T00:16:28;29.30;51.10
55771;DHT22;41687;-33.234;-60.334;2022-11-27T00:18:56;29.30;51.50
55771;DHT22;41687;-33.234;-60.334;2022-11-27T00:21:32;29.30;51.70
55771;DHT22;41687;-33.234;-60.334;2022-11-27T00:24:03;29.20;53.10
55771;DHT22;41687;-33.234;-60.334;2022-11-27T00:26:31;29.00;52.70
55771;DHT22;41687;-33.234;-60.334;2022-11-27T00:29:00;29.00;52.40
55771;DHT22;41687;-33.234;-60.334;2022-11-27T00:31:34;28.90;52.80
55771;DHT22;41687;-33.234;-60.334;2022-11-27T00:34:06;28.90;53.20
55771;DHT22;41687;-33.234;-60.334;2022-11-27T00:36:35;28.80;53.30
55771;DHT22;41687;-33.234;-60.334;2022-11-27T00:39:06;28.70;53.30
55771;DHT22;41687;-33.234;-60.334;2022-11-27T00:41:34;28.60;53.30
55771;DHT22;41687;-33.234;-60.334;2022-11-27T00:44:05;28.50;53.20
55771;DHT22;41687;-33.234;-60.334;2022-11-27T00:46:34;28.40;53.70
55771;DHT22;41687;-33.234;-60.334;2022-11-27T00:49:03;28.30;54.30
55771;DHT22;41687;-33.234;-60.334;2022-11-27T00:51:32;28.30;54.50
55771;DHT22;41687;-33.234;-60.334;2022-11-27T00:54:00;28.20;54.30
55771;DHT22;41687;-33.234;-60.334;2022-11-27T00:56:31;28.20;55.00
55771;DHT22;41687;-33.234;-60.334;2022-11-27T00:59:03;28.00;55.40
55771;DHT22;41687;-33.234;-60.334;2022-11-27T01:01:36;28.00;55.40
55771;DHT22;41687;-33.234;-60.334;2022-11-27T01:04:07;28.00;55.20
55771;DHT22;41687;-33.234;-60.334;2022-11-27T01:06:35;27.80;55.20
55771;DHT22;41687;-33.234;-60.334;2022-11-27T01:09:03;27.80;55.20
55771;DHT22;41687;-33.234;-60.334;2022-11-27T01:11:35;27.80;55.80
55771;DHT22;41687;-33.234;-60.334;2022-11-27T01:14:06;27.80;55.80
55771;DHT22;41687;-33.234;-60.334;2022-11-27T01:16:35;27.70;56.50
55771;DHT22;41687;-33.234;-60.334;2022-11-27T01:19:05;27.70;56.00
55771;DHT22;41687;-33.234;-60.334;2022-11-27T01:21:33;27.60;57.20
55771;DHT22;41687;-33.234;-60.334;2022-11-27T01:24:03;27.60;56.10
55771;DHT22;41687;-33.234;-60.334;2022-11-27T01:26:33;27.50;56.50
55771;DHT22;41687;-33.234;-60.334;2022-11-27T01:29:01;27.50;56.60
55771;DHT22;41687;-33.234;-60.334;2022-11-27T01:31:32;27.40;56.50
55771;DHT22;41687;-33.234;-60.334;2022-11-27T01:34:03;27.30;57.00
55771;DHT22;41687;-33.234;-60.334;2022-11-27T01:36:32;27.20;57.10
55771;DHT22;41687;-33.234;-60.334;2022-11-27T01:39:00;27.20;57.20
55771;DHT22;41687;-33.234;-60.334;2022-11-27T01:41:33;27.10;57.20
55771;DHT22;41687;-33.234;-60.334;2022-11-27T01:47:01;27.10;59.10
55771;DHT22;41687;-33.234;-60.334;2022-11-27T01:52:12;26.90;58.30
55771;DHT22;41687;-33.234;-60.334;2022-11-27T01:57:32;26.80;59.60
55771;DHT22;41687;-33.234;-60.334;2022-11-27T02:00:07;26.80;59.70
55771;DHT22;41687;-33.234;-60.334;2022-11-27T02:02:42;26.70;58.70
55771;DHT22;41687;-33.234;-60.334;2022-11-27T02:05:19;26.60;59.60
55771;DHT22;41687;-33.234;-60.334;2022-11-27T02:07:47;26.50;59.20
55771;DHT22;41687;-33.234;-60.334;2022-11-27T02:10:15;26.50;59.40
55771;DHT22;41687;-33.234;-60.334;2022-11-27T02:13:08;26.40;59.90
55771;DHT22;41687;-33.234;-60.334;2022-11-27T02:18:42;26.30;61.50
55771;DHT22;41687;-33.234;-60.334;2022-11-27T02:24:31;26.20;62.10
55771;DHT22;41687;-33.234;-60.334;2022-11-27T02:29:57;26.10;63.10
55771;DHT22;41687;-33.234;-60.334;2022-11-27T02:35:38;25.90;62.70
55771;DHT22;41687;-33.234;-60.334;2022-11-27T02:38:16;25.90;62.10
55771;DHT22;41687;-33.234;-60.334;2022-11-27T02:40:54;25.80;63.80
55771;DHT22;41687;-33.234;-60.334;2022-11-27T02:43:31;25.80;63.20
55771;DHT22;41687;-33.234;-60.334;2022-11-27T02:46:02;25.80;64.20
55771;DHT22;41687;-33.234;-60.334;2022-11-27T02:48:37;25.70;63.30
55771;DHT22;41687;-33.234;-60.334;2022-11-27T02:51:06;25.60;64.20
55771;DHT22;41687;-33.234;-60.334;2022-11-27T02:53:58;25.60;63.50
55771;DHT22;41687;-33.234;-60.334;2022-11-27T02:56:28;25.50;66.80
55771;DHT22;41687;-33.234;-60.334;2022-11-27T02:59:00;25.50;64.40
55771;DHT22;41687;-33.234;-60.334;2022-11-27T03:01:33;25.50;64.80
55771;DHT22;41687;-33.234;-60.334;2022-11-27T03:04:07;25.50;65.10
55771;DHT22;41687;-33.234;-60.334;2022-11-27T03:06:42;25.40;64.80
55771;DHT22;41687;-33.234;-60.334;2022-11-27T03:09:28;25.50;65.00
55771;DHT22;41687;-33.234;-60.334;2022-11-27T03:12:00;25.30;65.50
55771;DHT22;41687;-33.234;-60.334;2022-11-27T03:14:34;25.30;64.40
55771;DHT22;41687;-33.234;-60.334;2022-11-27T03:19:50;25.40;64.50
55771;DHT22;41687;-33.234;-60.334;2022-11-27T03:22:20;25.30;65.20
55771;DHT22;41687;-33.234;-60.334;2022-11-27T03:24:48;25.30;63.80
55771;DHT22;41687;-33.234;-60.334;2022-11-27T03:27:24;25.30;63.40
55771;DHT22;41687;-33.234;-60.334;2022-11-27T03:29:59;25.30;63.50
55771;DHT22;41687;-33.234;-60.334;2022-11-27T03:32:28;25.30;63.50
55771;DHT22;41687;-33.234;-60.334;2022-11-27T03:34:56;25.30;62.10
55771;DHT22;41687;-33.234;-60.334;2022-11-27T03:37:25;25.30;61.70
55771;DHT22;41687;-33.234;-60.334;2022-11-27T03:39:53;25.30;62.30
55771;DHT22;41687;-33.234;-60.334;2022-11-27T03:42:35;25.30;61.60
55771;DHT22;41687;-33.234;-60.334;2022-11-27T03:45:27;25.30;62.90
55771;DHT22;41687;-33.234;-60.334;2022-11-27T03:48:23;25.30;63.20
55771;DHT22;41687;-33.234;-60.334;2022-11-27T03:51:15;25.30;62.80
55771;DHT22;41687;-33.234;-60.334;2022-11-27T03:53:57;25.30;61.20
55771;DHT22;41687;-33.234;-60.334;2022-11-27T03:56:59;25.20;62.30
55771;DHT22;41687;-33.234;-60.334;2022-11-27T03:59:31;25.20;62.70
55771;DHT22;41687;-33.234;-60.334;2022-11-27T04:02:01;25.20;61.40
55771;DHT22;41687;-33.234;-60.334;2022-11-27T04:04:28;25.20;61.30
55771;DHT22;41687;-33.234;-60.334;2022-11-27T04:06:56;25.20;61.30
55771;DHT22;41687;-33.234;-60.334;2022-11-27T04:09:23;25.20;61.80
55771;DHT22;41687;-33.234;-60.334;2022-11-27T04:11:52;25.10;61.30
55771;DHT22;41687;-33.234;-60.334;2022-11-27T04:14:19;25.00;61.60
55771;DHT22;41687;-33.234;-60.334;2022-11-27T04:16:47;25.00;61.20
55771;DHT22;41687;-33.234;-60.334;2022-11-27T04:19:15;25.00;61.30
55771;DHT22;41687;-33.234;-60.334;2022-11-27T04:21:43;25.00;61.30
55771;DHT22;41687;-33.234;-60.334;2022-11-27T04:24:10;24.90;61.40
55771;DHT22;41687;-33.234;-60.334;2022-11-27T04:26:38;24.90;61.40
55771;DHT22;41687;-33.234;-60.334;2022-11-27T04:29:06;24.90;61.50
55771;DHT22;41687;-33.234;-60.334;2022-11-27T04:31:34;24.80;61.60
55771;DHT22;41687;-33.234;-60.334;2022-11-27T04:34:01;24.90;61.30
55771;DHT22;41687;-33.234;-60.334;2022-11-27T04:36:29;24.80;61.60
55771;DHT22;41687;-33.234;-60.334;2022-11-27T04:38:57;24.70;61.50
55771;DHT22;41687;-33.234;-60.334;2022-11-27T04:41:25;24.70;61.00
55771;DHT22;41687;-33.234;-60.334;2022-11-27T04:43:52;24.70;61.20
55771;DHT22;41687;-33.234;-60.334;2022-11-27T04:46:20;24.70;61.40
55771;DHT22;41687;-33.234;-60.334;2022-11-27T04:48:47;24.60;61.20
55771;DHT22;41687;-33.234;-60.334;2022-11-27T04:51:16;24.60;61.00
55771;DHT22;41687;-33.234;-60.334;2022-11-27T04:53:43;24.60;61.20
55771;DHT22;41687;-33.234;-60.334;2022-11-27T04:56:11;24.50;60.80
55771;DHT22;41687;-33.234;-60.334;2022-11-27T04:58:39;24.60;60.80
55771;DHT22;41687;-33.234;-60.334;2022-11-27T05:01:08;24.60;60.80
55771;DHT22;41687;-33.234;-60.334;2022-11-27T05:03:36;24.60;60.50
55771;DHT22;41687;-33.234;-60.334;2022-11-27T05:06:04;24.50;60.30
55771;DHT22;41687;-33.234;-60.334;2022-11-27T05:08:32;24.60;59.90
55771;DHT22;41687;-33.234;-60.334;2022-11-27T05:11:04;24.60;60.10
55771;DHT22;41687;-33.234;-60.334;2022-11-27T05:13:32;24.50;59.90
55771;DHT22;41687;-33.234;-60.334;2022-11-27T05:16:00;24.50;60.10
55771;DHT22;41687;-33.234;-60.334;2022-11-27T05:18:28;24.40;60.10
55771;DHT22;41687;-33.234;-60.334;2022-11-27T05:21:02;24.40;60.20
55771;DHT22;41687;-33.234;-60.334;2022-11-27T05:23:31;24.40;60.50
55771;DHT22;41687;-33.234;-60.334;2022-11-27T05:25:59;24.40;60.10
55771;DHT22;41687;-33.234;-60.334;2022-11-27T05:28:27;24.40;60.00
55771;DHT22;41687;-33.234;-60.334;2022-11-27T05:30:54;24.40;60.00
55771;DHT22;41687;-33.234;-60.334;2022-11-27T05:33:23;24.30;59.90
55771;DHT22;41687;-33.234;-60.334;2022-11-27T05:35:50;24.20;59.90
55771;DHT22;41687;-33.234;-60.334;2022-11-27T05:38:18;24.30;59.70
55771;DHT22;41687;-33.234;-60.334;2022-11-27T05:40:46;24.30;59.60
55771;DHT22;41687;-33.234;-60.334;2022-11-27T05:43:14;24.20;59.50
55771;DHT22;41687;-33.234;-60.334;2022-11-27T05:45:41;24.30;59.60
55771;DHT22;41687;-33.234;-60.334;2022-11-27T05:48:09;24.30;59.50
55771;DHT22;41687;-33.234;-60.334;2022-11-27T05:50:37;24.30;59.50
55771;DHT22;41687;-33.234;-60.334;2022-11-27T05:53:06;24.20;59.50
55771;DHT22;41687;-33.234;-60.334;2022-11-27T05:55:34;24.10;59.50
55771;DHT22;41687;-33.234;-60.334;2022-11-27T05:58:02;24.00;59.90
55771;DHT22;41687;-33.234;-60.334;2022-11-27T06:00:29;24.10;59.80
55771;DHT22;41687;-33.234;-60.334;2022-11-27T06:02:57;24.00;59.70
55771;DHT22;41687;-33.234;-60.334;2022-11-27T06:05:25;24.00;59.40
55771;DHT22;41687;-33.234;-60.334;2022-11-27T06:07:53;24.00;59.80
55771;DHT22;41687;-33.234;-60.334;2022-11-27T06:10:21;23.90;59.70
55771;DHT22;41687;-33.234;-60.334;2022-11-27T06:12:49;23.90;59.70
55771;DHT22;41687;-33.234;-60.334;2022-11-27T06:15:17;23.90;59.70
55771;DHT22;41687;-33.234;-60.334;2022-11-27T06:17:44;23.80;59.50
55771;DHT22;41687;-33.234;-60.334;2022-11-27T06:20:16;23.80;59.60
55771;DHT22;41687;-33.234;-60.334;2022-11-27T06:22:46;23.90;59.80
55771;DHT22;41687;-33.234;-60.334;2022-11-27T06:25:14;23.90;59.80
55771;DHT22;41687;-33.234;-60.334;2022-11-27T06:27:42;23.80;60.00
55771;DHT22;41687;-33.234;-60.334;2022-11-27T06:30:10;23.80;59.90
55771;DHT22;41687;-33.234;-60.334;2022-11-27T06:32:38;23.80;59.90
55771;DHT22;41687;-33.234;-60.334;2022-11-27T06:35:06;23.70;60.00
55771;DHT22;41687;-33.234;-60.334;2022-11-27T06:37:34;23.70;60.10
55771;DHT22;41687;-33.234;-60.334;2022-11-27T06:40:03;23.70;60.00
55771;DHT22;41687;-33.234;-60.334;2022-11-27T06:42:31;23.60;60.30
55771;DHT22;41687;-33.234;-60.334;2022-11-27T06:44:58;23.60;59.90
55771;DHT22;41687;-33.234;-60.334;2022-11-27T06:47:27;23.50;59.90
55771;DHT22;41687;-33.234;-60.334;2022-11-27T06:49:54;23.50;59.70
55771;DHT22;41687;-33.234;-60.334;2022-11-27T06:52:22;23.50;59.80
55771;DHT22;41687;-33.234;-60.334;2022-11-27T06:54:50;23.50;59.90
55771;DHT22;41687;-33.234;-60.334;2022-11-27T06:57:18;23.50;59.70
55771;DHT22;41687;-33.234;-60.334;2022-11-27T06:59:45;23.40;59.70
55771;DHT22;41687;-33.234;-60.334;2022-11-27T07:02:15;23.40;60.00
55771;DHT22;41687;-33.234;-60.334;2022-11-27T07:04:43;23.40;59.90
55771;DHT22;41687;-33.234;-60.334;2022-11-27T07:07:11;23.40;60.00
55771;DHT22;41687;-33.234;-60.334;2022-11-27T07:09:39;23.40;60.00
55771;DHT22;41687;-33.234;-60.334;2022-11-27T07:12:07;23.30;59.60
55771;DHT22;41687;-33.234;-60.334;2022-11-27T07:14:35;23.30;59.60
55771;DHT22;41687;-33.234;-60.334;2022-11-27T07:17:03;23.30;59.40
55771;DHT22;41687;-33.234;-60.334;2022-11-27T07:19:31;23.30;59.50
55771;DHT22;41687;-33.234;-60.334;2022-11-27T07:21:58;23.30;59.50
55771;DHT22;41687;-33.234;-60.334;2022-11-27T07:24:26;23.20;59.50
55771;DHT22;41687;-33.234;-60.334;2022-11-27T07:26:54;23.20;59.50
55771;DHT22;41687;-33.234;-60.334;2022-11-27T07:29:22;23.20;59.80
55771;DHT22;41687;-33.234;-60.334;2022-11-27T07:31:49;23.10;59.80
55771;DHT22;41687;-33.234;-60.334;2022-11-27T07:34:17;23.10;60.00
55771;DHT22;41687;-33.234;-60.334;2022-11-27T07:36:45;23.10;60.00
55771;DHT22;41687;-33.234;-60.334;2022-11-27T07:39:13;23.20;59.70
55771;DHT22;41687;-33.234;-60.334;2022-11-27T07:41:42;23.20;59.60
55771;DHT22;41687;-33.234;-60.334;2022-11-27T07:44:09;23.10;59.80
55771;DHT22;41687;-33.234;-60.334;2022-11-27T07:46:37;23.10;59.90
55771;DHT22;41687;-33.234;-60.334;2022-11-27T07:49:05;23.00;60.00
55771;DHT22;41687;-33.234;-60.334;2022-11-27T07:51:32;23.00;59.90
55771;DHT22;41687;-33.234;-60.334;2022-11-27T07:54:00;23.00;60.00
55771;DHT22;41687;-33.234;-60.334;2022-11-27T07:56:27;23.00;60.00
55771;DHT22;41687;-33.234;-60.334;2022-11-27T07:58:57;22.90;60.10
55771;DHT22;41687;-33.234;-60.334;2022-11-27T08:01:24;22.90;60.40
55771;DHT22;41687;-33.234;-60.334;2022-11-27T08:03:52;22.80;60.50
55771;DHT22;41687;-33.234;-60.334;2022-11-27T08:06:23;22.80;60.40
55771;DHT22;41687;-33.234;-60.334;2022-11-27T08:08:52;22.80;60.60
55771;DHT22;41687;-33.234;-60.334;2022-11-27T08:11:25;22.90;60.40
55771;DHT22;41687;-33.234;-60.334;2022-11-27T08:14:02;22.80;60.70
55771;DHT22;41687;-33.234;-60.334;2022-11-27T08:16:30;22.70;60.90
55771;DHT22;41687;-33.234;-60.334;2022-11-27T08:18:58;22.70;60.80
55771;DHT22;41687;-33.234;-60.334;2022-11-27T08:21:27;22.70;60.80
55771;DHT22;41687;-33.234;-60.334;2022-11-27T08:23:56;22.70;60.90
55771;DHT22;41687;-33.234;-60.334;2022-11-27T08:26:25;22.60;61.00
55771;DHT22;41687;-33.234;-60.334;2022-11-27T08:28:56;22.60;61.60
55771;DHT22;41687;-33.234;-60.334;2022-11-27T08:31:24;22.40;61.80
55771;DHT22;41687;-33.234;-60.334;2022-11-27T08:33:52;22.40;61.70
55771;DHT22;41687;-33.234;-60.334;2022-11-27T08:36:20;22.40;61.50
55771;DHT22;41687;-33.234;-60.334;2022-11-27T08:38:48;22.50;61.70
55771;DHT22;41687;-33.234;-60.334;2022-11-27T08:41:16;22.50;61.50
55771;DHT22;41687;-33.234;-60.334;2022-11-27T08:43:44;22.60;61.40
55771;DHT22;41687;-33.234;-60.334;2022-11-27T08:46:12;22.50;61.90
55771;DHT22;41687;-33.234;-60.334;2022-11-27T08:48:40;22.60;61.40
55771;DHT22;41687;-33.234;-60.334;2022-11-27T08:51:10;22.60;61.30
55771;DHT22;41687;-33.234;-60.334;2022-11-27T08:53:39;22.60;61.50
55771;DHT22;41687;-33.234;-60.334;2022-11-27T08:56:10;22.50;61.70
55771;DHT22;41687;-33.234;-60.334;2022-11-27T08:58:40;22.40;62.00
55771;DHT22;41687;-33.234;-60.334;2022-11-27T09:01:10;22.40;62.00
55771;DHT22;41687;-33.234;-60.334;2022-11-27T09:03:38;22.20;62.50
55771;DHT22;41687;-33.234;-60.334;2022-11-27T09:06:08;22.10;62.80
55771;DHT22;41687;-33.234;-60.334;2022-11-27T09:08:37;22.20;62.80
55771;DHT22;41687;-33.234;-60.334;2022-11-27T09:11:06;22.10;63.00
55771;DHT22;41687;-33.234;-60.334;2022-11-27T09:13:34;22.10;62.80
55771;DHT22;41687;-33.234;-60.334;2022-11-27T09:16:09;22.20;62.70
55771;DHT22;41687;-33.234;-60.334;2022-11-27T09:18:37;22.20;63.10
55771;DHT22;41687;-33.234;-60.334;2022-11-27T09:21:07;22.30;63.30
55771;DHT22;41687;-33.234;-60.334;2022-11-27T09:23:36;22.30;62.90
55771;DHT22;41687;-33.234;-60.334;2022-11-27T09:26:09;22.40;63.00
55771;DHT22;41687;-33.234;-60.334;2022-11-27T09:28:38;22.50;63.30
55771;DHT22;41687;-33.234;-60.334;2022-11-27T09:31:09;22.50;63.00
55771;DHT22;41687;-33.234;-60.334;2022-11-27T09:33:39;22.60;63.10
55771;DHT22;41687;-33.234;-60.334;2022-11-27T09:36:16;22.60;63.20
55771;DHT22;41687;-33.234;-60.334;2022-11-27T09:38:45;22.70;63.80
55771;DHT22;41687;-33.234;-60.334;2022-11-27T09:43:59;22.80;62.90
55771;DHT22;41687;-33.234;-60.334;2022-11-27T09:46:36;22.70;63.70
55771;DHT22;41687;-33.234;-60.334;2022-11-27T09:49:08;22.70;63.50
55771;DHT22;41687;-33.234;-60.334;2022-11-27T09:51:44;22.70;63.00
55771;DHT22;41687;-33.234;-60.334;2022-11-27T09:54:17;22.70;63.50
55771;DHT22;41687;-33.234;-60.334;2022-11-27T09:56:49;22.70;63.00
55771;DHT22;41687;-33.234;-60.334;2022-11-27T09:59:24;22.50;64.00
55771;DHT22;41687;-33.234;-60.334;2022-11-27T10:01:54;22.80;63.70
55771;DHT22;41687;-33.234;-60.334;2022-11-27T10:04:21;22.70;63.70
55771;DHT22;41687;-33.234;-60.334;2022-11-27T10:25:46;23.60;63.60
55771;DHT22;41687;-33.234;-60.334;2022-11-27T10:34:36;23.60;63.80
55771;DHT22;41687;-33.234;-60.334;2022-11-27T10:37:26;23.80;63.40
55771;DHT22;41687;-33.234;-60.334;2022-11-27T10:40:07;24.00;62.70
55771;DHT22;41687;-33.234;-60.334;2022-11-27T10:45:21;24.00;62.60
55771;DHT22;41687;-33.234;-60.334;2022-11-27T10:47:51;24.40;62.50
55771;DHT22;41687;-33.234;-60.334;2022-11-27T10:50:20;24.50;62.00
55771;DHT22;41687;-33.234;-60.334;2022-11-27T10:52:59;24.60;62.30
55771;DHT22;41687;-33.234;-60.334;2022-11-27T10:55:39;24.80;62.60
55771;DHT22;41687;-33.234;-60.334;2022-11-27T11:01:08;25.10;62.20
55771;DHT22;41687;-33.234;-60.334;2022-11-27T11:03:36;25.10;61.70
55771;DHT22;41687;-33.234;-60.334;2022-11-27T11:06:07;25.20;61.90
55771;DHT22;41687;-33.234;-60.334;2022-11-27T11:08:36;25.20;61.70
55771;DHT22;41687;-33.234;-60.334;2022-11-27T11:11:05;25.30;61.50
55771;DHT22;41687;-33.234;-60.334;2022-11-27T11:13:53;25.40;61.80
55771;DHT22;41687;-33.234;-60.334;2022-11-27T11:16:28;25.30;61.80
55771;DHT22;41687;-33.234;-60.334;2022-11-27T11:18:57;25.30;62.10
55771;DHT22;41687;-33.234;-60.334;2022-11-27T11:21:40;25.30;62.60
55771;DHT22;41687;-33.234;-60.334;2022-11-27T11:24:23;25.50;62.20
55771;DHT22;41687;-33.234;-60.334;2022-11-27T11:35:31;25.80;62.00
55771;DHT22;41687;-33.234;-60.334;2022-11-27T11:37:58;25.80;62.50
55771;DHT22;41687;-33.234;-60.334;2022-11-27T11:40:31;26.10;62.00
55771;DHT22;41687;-33.234;-60.334;2022-11-27T11:43:02;25.70;62.40
55771;DHT22;41687;-33.234;-60.334;2022-11-27T11:45:33;25.60;63.00
55771;DHT22;41687;-33.234;-60.334;2022-11-27T11:48:14;26.10;62.70
55771;DHT22;41687;-33.234;-60.334;2022-11-27T11:51:10;25.90;62.50
55771;DHT22;41687;-33.234;-60.334;2022-11-27T11:53:44;26.50;62.70
55771;DHT22;41687;-33.234;-60.334;2022-11-27T11:56:39;26.40;62.60
55771;DHT22;41687;-33.234;-60.334;2022-11-27T11:59:34;26.40;63.20
55771;DHT22;41687;-33.234;-60.334;2022-11-27T12:07:45;26.90;62.80
55771;DHT22;41687;-33.234;-60.334;2022-11-27T12:30:23;28.60;60.30
55771;DHT22;41687;-33.234;-60.334;2022-11-27T12:35:51;28.90;60.30
55771;DHT22;41687;-33.234;-60.334;2022-11-27T12:44:13;28.90;59.10
55771;DHT22;41687;-33.234;-60.334;2022-11-27T12:49:45;29.20;58.70
55771;DHT22;41687;-33.234;-60.334;2022-11-27T12:52:33;29.40;58.40
55771;DHT22;41687;-33.234;-60.334;2022-11-27T12:55:25;29.60;58.20
55771;DHT22;41687;-33.234;-60.334;2022-11-27T12:58:08;30.00;59.60
55771;DHT22;41687;-33.234;-60.334;2022-11-27T13:00:40;30.10;57.50
55771;DHT22;41687;-33.234;-60.334;2022-11-27T13:03:22;29.70;57.00
55771;DHT22;41687;-33.234;-60.334;2022-11-27T13:06:13;30.10;57.90
55771;DHT22;41687;-33.234;-60.334;2022-11-27T13:09:04;30.40;56.60
55771;DHT22;41687;-33.234;-60.334;2022-11-27T13:11:39;30.90;56.60
55771;DHT22;41687;-33.234;-60.334;2022-11-27T13:14:18;30.70;55.90
55771;DHT22;41687;-33.234;-60.334;2022-11-27T13:16:54;30.70;55.90
55771;DHT22;41687;-33.234;-60.334;2022-11-27T13:19:25;31.30;56.10
55771;DHT22;41687;-33.234;-60.334;2022-11-27T13:21:55;31.80;56.20
55771;DHT22;41687;-33.234;-60.334;2022-11-27T13:24:25;32.30;54.40
55771;DHT22;41687;-33.234;-60.334;2022-11-27T13:27:03;32.30;54.60
55771;DHT22;41687;-33.234;-60.334;2022-11-27T13:29:41;32.20;53.30
55771;DHT22;41687;-33.234;-60.334;2022-11-27T13:32:19;32.10;53.90
55771;DHT22;41687;-33.234;-60.334;2022-11-27T13:34:50;32.00;52.80
55771;DHT22;41687;-33.234;-60.334;2022-11-27T13:37:44;32.50;52.20
55771;DHT22;41687;-33.234;-60.334;2022-11-27T13:40:40;32.20;51.00
55771;DHT22;41687;-33.234;-60.334;2022-11-27T13:43:27;32.60;50.90
55771;DHT22;41687;-33.234;-60.334;2022-11-27T13:48:47;33.00;51.30
55771;DHT22;41687;-33.234;-60.334;2022-11-27T13:51:26;33.40;51.20
55771;DHT22;41687;-33.234;-60.334;2022-11-27T13:54:16;33.80;52.50
55771;DHT22;41687;-33.234;-60.334;2022-11-27T13:56:46;34.00;50.60
55771;DHT22;41687;-33.234;-60.334;2022-11-27T13:59:19;34.30;50.90
55771;DHT22;41687;-33.234;-60.334;2022-11-27T14:01:59;34.00;52.60
55771;DHT22;41687;-33.234;-60.334;2022-11-27T14:04:29;33.60;49.80
55771;DHT22;41687;-33.234;-60.334;2022-11-27T14:09:48;34.30;52.80
55771;DHT22;41687;-33.234;-60.334;2022-11-27T14:12:27;34.30;50.50
55771;DHT22;41687;-33.234;-60.334;2022-11-27T14:15:21;34.60;50.60
55771;DHT22;41687;-33.234;-60.334;2022-11-27T14:17:52;34.10;47.80
55771;DHT22;41687;-33.234;-60.334;2022-11-27T14:20:29;33.70;48.20
55771;DHT22;41687;-33.234;-60.334;2022-11-27T14:22:58;33.70;48.70
55771;DHT22;41687;-33.234;-60.334;2022-11-27T14:28:02;34.30;50.40
55771;DHT22;41687;-33.234;-60.334;2022-11-27T14:30:59;34.70;48.70
55771;DHT22;41687;-33.234;-60.334;2022-11-27T14:33:30;34.40;48.30
55771;DHT22;41687;-33.234;-60.334;2022-11-27T14:36:02;34.30;49.20
55771;DHT22;41687;-33.234;-60.334;2022-11-27T14:38:32;34.50;50.00
55771;DHT22;41687;-33.234;-60.334;2022-11-27T14:41:26;34.80;47.90
55771;DHT22;41687;-33.234;-60.334;2022-11-27T14:44:06;34.50;48.30
55771;DHT22;41687;-33.234;-60.334;2022-11-27T14:46:40;35.00;48.30
55771;DHT22;41687;-33.234;-60.334;2022-11-27T14:49:18;35.00;49.40
55771;DHT22;41687;-33.234;-60.334;2022-11-27T14:51:47;35.30;48.10
55771;DHT22;41687;-33.234;-60.334;2022-11-27T14:54:33;35.00;49.20
55771;DHT22;41687;-33.234;-60.334;2022-11-27T14:57:04;34.60;46.60
55771;DHT22;41687;-33.234;-60.334;2022-11-27T14:59:32;34.40;48.40
55771;DHT22;41687;-33.234;-60.334;2022-11-27T15:02:20;34.60;49.00
55771;DHT22;41687;-33.234;-60.334;2022-11-27T15:05:02;34.90;48.40
55771;DHT22;41687;-33.234;-60.334;2022-11-27T15:07:32;35.10;44.40
55771;DHT22;41687;-33.234;-60.334;2022-11-27T15:10:03;35.20;46.00
55771;DHT22;41687;-33.234;-60.334;2022-11-27T15:12:36;35.40;46.80
55771;DHT22;41687;-33.234;-60.334;2022-11-27T15:15:26;35.20;46.50
55771;DHT22;41687;-33.234;-60.334;2022-11-27T15:17:57;35.00;44.60
55771;DHT22;41687;-33.234;-60.334;2022-11-27T15:22:59;34.80;45.50
55771;DHT22;41687;-33.234;-60.334;2022-11-27T15:25:38;34.70;46.70
55771;DHT22;41687;-33.234;-60.334;2022-11-27T15:28:33;34.80;45.60
55771;DHT22;41687;-33.234;-60.334;2022-11-27T15:31:25;34.80;44.90
55771;DHT22;41687;-33.234;-60.334;2022-11-27T15:36:48;34.70;44.90
55771;DHT22;41687;-33.234;-60.334;2022-11-27T15:39:45;34.70;45.00
55771;DHT22;41687;-33.234;-60.334;2022-11-27T15:42:14;34.90;45.40
55771;DHT22;41687;-33.234;-60.334;2022-11-27T15:44:44;34.70;47.10
55771;DHT22;41687;-33.234;-60.334;2022-11-27T15:47:30;34.50;46.10
55771;DHT22;41687;-33.234;-60.334;2022-11-27T15:49:58;34.40;44.60
55771;DHT22;41687;-33.234;-60.334;2022-11-27T15:52:26;34.40;46.10
55771;DHT22;41687;-33.234;-60.334;2022-11-27T15:54:54;34.30;45.70
55771;DHT22;41687;-33.234;-60.334;2022-11-27T15:57:23;34.10;45.60
55771;DHT22;41687;-33.234;-60.334;2022-11-27T15:59:52;34.20;46.30
55771;DHT22;41687;-33.234;-60.334;2022-11-27T16:02:19;34.20;45.60
55771;DHT22;41687;-33.234;-60.334;2022-11-27T16:04:49;34.30;45.60
55771;DHT22;41687;-33.234;-60.334;2022-11-27T16:07:17;34.20;44.70
55771;DHT22;41687;-33.234;-60.334;2022-11-27T16:09:45;34.20;44.80
55771;DHT22;41687;-33.234;-60.334;2022-11-27T16:12:13;34.20;44.90
55771;DHT22;41687;-33.234;-60.334;2022-11-27T16:14:41;34.00;43.60
55771;DHT22;41687;-33.234;-60.334;2022-11-27T16:17:09;34.00;43.60
55771;DHT22;41687;-33.234;-60.334;2022-11-27T16:19:38;33.80;42.30
55771;DHT22;41687;-33.234;-60.334;2022-11-27T16:22:05;33.80;43.50
55771;DHT22;41687;-33.234;-60.334;2022-11-27T16:24:34;33.60;43.50
55771;DHT22;41687;-33.234;-60.334;2022-11-27T16:27:01;33.70;43.00
55771;DHT22;41687;-33.234;-60.334;2022-11-27T16:29:29;33.70;43.20
55771;DHT22;41687;-33.234;-60.334;2022-11-27T16:31:57;33.70;43.50
55771;DHT22;41687;-33.234;-60.334;2022-11-27T16:34:25;33.90;43.60
55771;DHT22;41687;-33.234;-60.334;2022-11-27T16:36:53;33.80;44.10
55771;DHT22;41687;-33.234;-60.334;2022-11-27T16:39:21;33.90;44.00
55771;DHT22;41687;-33.234;-60.334;2022-11-27T16:41:48;33.80;43.20
55771;DHT22;41687;-33.234;-60.334;2022-11-27T16:44:18;33.80;43.70
55771;DHT22;41687;-33.234;-60.334;2022-11-27T16:46:46;33.80;43.20
55771;DHT22;41687;-33.234;-60.334;2022-11-27T16:49:14;33.60;42.80
55771;DHT22;41687;-33.234;-60.334;2022-11-27T16:51:43;33.60;43.10
55771;DHT22;41687;-33.234;-60.334;2022-11-27T16:54:12;33.70;42.40
55771;DHT22;41687;-33.234;-60.334;2022-11-27T16:56:42;33.60;42.60
55771;DHT22;41687;-33.234;-60.334;2022-11-27T16:59:13;33.60;43.70
55771;DHT22;41687;-33.234;-60.334;2022-11-27T17:01:43;33.60;42.80
55771;DHT22;41687;-33.234;-60.334;2022-11-27T17:04:17;33.50;41.80
55771;DHT22;41687;-33.234;-60.334;2022-11-27T17:06:47;33.30;42.20
55771;DHT22;41687;-33.234;-60.334;2022-11-27T17:09:14;33.20;43.30
55771;DHT22;41687;-33.234;-60.334;2022-11-27T17:11:45;33.40;43.00
55771;DHT22;41687;-33.234;-60.334;2022-11-27T17:14:15;33.40;42.20